Josco Star — VRBS3 — position and weather

sailwx.info

Track history (hours):
 
Tides and Currents Weather Stations Pressure Air Temp Water Temp Dewpoint Dewpoint Depression Visibility Wind Speed Wind Dir Waves Ship Positions

Josco Star

Last reported at 2018-Jun-18 03:24 UTC. Time now 2018-Jun-18 21:14 UTC.
Position N 32°01' E 120°33'.

Length 143 m; draft 6.8 m.

Type: Cargo ship. MMSI: 477105800.

Date/timePositionNaut miles runAvg speedWind from/ knotsBaromVisibWave heightAir tempDewpointWater temp
2018-Jun-18 03:24N 32°01' E 120°33'613.7
2018-Jun-18 03:00N 32°02' E 120°27'2 0.0
2018-Jun-16 04:51N 32°01' E 120°24'2 5.8
2018-Jun-16 04:30N 32°02' E 120°27'5 9.0
2018-Jun-16 04:00N 32°01' E 120°32'83 9.8
2018-Jun-15 19:32N 31°16' E 121°54'112.6
2018-Jun-15 19:29N 31°16' E 121°54'612.5
2018-Jun-15 18:58N 31°15' E 122°02'912.1
2018-Jun-15 18:13N 31°11' E 122°11'413.6
2018-Jun-15 17:55N 31°08' E 122°15'612.5
2018-Jun-15 17:26N 31°07' E 122°22'  
2018-Jun-11 22:36N 35°02' E 139°38'214.4
2018-Jun-11 22:29N 35°04' E 139°40'713.7
2018-Jun-11 22:00N 35°08' E 139°45'713.5
2018-Jun-11 21:29N 35°15' E 139°46'612.7
2018-Jun-11 21:00N 35°20' E 139°42'510.9
2018-Jun-11 20:30N 35°26' E 139°44'1 1.6
2018-Jun-11 19:59N 35°26' E 139°43'0 0.0
2018-Jun-11 19:29N 35°26' E 139°43'0 0.0
2018-Jun-11 18:59N 35°26' E 139°43'0 0.0
2018-Jun-11 18:29N 35°26' E 139°43'0 0.0
2018-Jun-11 17:59N 35°26' E 139°43'0 0.1
2018-Jun-11 17:29N 35°26' E 139°43'0 0.0
2018-Jun-11 16:59N 35°26' E 139°43'0 0.0
2018-Jun-11 16:29N 35°26' E 139°43'0 0.0
2018-Jun-11 15:59N 35°26' E 139°43'0 0.0
2018-Jun-11 15:29N 35°26' E 139°43'0 0.0
2018-Jun-11 14:59N 35°26' E 139°43'0 0.0
2018-Jun-11 14:29N 35°26' E 139°43'0 0.0
2018-Jun-11 13:59N 35°26' E 139°43'0 0.1
2018-Jun-11 13:29N 35°26' E 139°43'0 0.0
2018-Jun-11 12:59N 35°26' E 139°43'0 0.0
2018-Jun-11 12:29N 35°26' E 139°43'0 0.0
2018-Jun-11 11:59N 35°26' E 139°43'0 0.0
2018-Jun-11 11:29N 35°26' E 139°43'0 0.0
2018-Jun-11 10:59N 35°26' E 139°43'0 0.0
2018-Jun-11 10:29N 35°26' E 139°43'0 0.0
2018-Jun-11 09:59N 35°26' E 139°43'0 0.0
2018-Jun-11 09:29N 35°26' E 139°43'0 0.0
2018-Jun-11 08:59N 35°26' E 139°43'0 0.0
2018-Jun-11 08:29N 35°26' E 139°43'0 0.1
2018-Jun-11 08:00N 35°26' E 139°43'1 2.9
2018-Jun-11 07:31N 35°27' E 139°41'0 0.8
2018-Jun-11 07:00N 35°27' E 139°41'0 0.0
2018-Jun-11 06:30N 35°27' E 139°41'0 0.0
2018-Jun-11 06:00N 35°27' E 139°41'0 0.0
2018-Jun-11 05:31N 35°27' E 139°41'0 0.0
2018-Jun-11 05:01N 35°27' E 139°41'0 0.0
2018-Jun-11 04:30N 35°27' E 139°41'0 0.0
2018-Jun-11 04:01N 35°27' E 139°41'0 0.0
2018-Jun-11 03:31N 35°27' E 139°41'0 0.0
2018-Jun-11 03:00N 35°27' E 139°41'0 0.0
2018-Jun-11 02:30N 35°27' E 139°41'1 2.8
2018-Jun-11 02:01N 35°26' E 139°42'510.0
2018-Jun-11 01:30N 35°29' E 139°48'2 2.0
2018-Jun-11 00:32N 35°29' E 139°45'0 0.0
2018-Jun-11 00:26N 35°29' E 139°45'0 0.0
2018-Jun-10 23:56N 35°29' E 139°45'0 0.0
2018-Jun-10 23:30N 35°29' E 139°45'0 0.3
2018-Jun-10 23:00N 35°29' E 139°45'2 4.7
2018-Jun-10 22:30N 35°27' E 139°44'1 1.9
2018-Jun-10 21:59N 35°26' E 139°43'0 0.0
2018-Jun-10 21:29N 35°26' E 139°43'0 0.0
2018-Jun-10 20:59N 35°26' E 139°43'0 0.0
2018-Jun-10 20:29N 35°26' E 139°43'0 0.0
2018-Jun-10 19:59N 35°26' E 139°43'0 0.0
2018-Jun-10 19:29N 35°26' E 139°43'0 0.0
2018-Jun-10 18:59N 35°26' E 139°43'0 0.0
2018-Jun-10 18:29N 35°26' E 139°43'0 0.1
2018-Jun-10 17:59N 35°26' E 139°43'0 0.1
2018-Jun-10 17:29N 35°26' E 139°43'0 0.0
2018-Jun-10 16:59N 35°26' E 139°43'0 0.0
2018-Jun-10 16:29N 35°26' E 139°43'0 0.0
2018-Jun-10 15:56N 35°26' E 139°43'0 0.1
2018-Jun-10 15:29N 35°26' E 139°43'0 0.2
2018-Jun-10 15:00N 35°26' E 139°43'0 0.5
2018-Jun-10 14:30N 35°26' E 139°43'7 7.0
2018-Jun-10 13:31N 35°30' E 139°51'510.8
2018-Jun-10 13:00N 35°34' E 139°48'2 4.1
2018-Jun-10 12:30N 35°36' E 139°47'0 0.0
2018-Jun-10 11:23N 35°36' E 139°47'0 0.0
2018-Jun-10 10:59N 35°36' E 139°47'0 0.0
2018-Jun-10 08:50N 35°36' E 139°47'0 0.0
2018-Jun-10 06:41N 35°36' E 139°47'0 0.0
2018-Jun-10 06:11N 35°36' E 139°47'0 0.0
2018-Jun-10 05:59N 35°36' E 139°47'0 0.0
2018-Jun-10 05:29N 35°36' E 139°47'0 0.0
2018-Jun-10 04:53N 35°36' E 139°47'0 0.0
2018-Jun-10 03:14N 35°36' E 139°47'0 0.0
2018-Jun-10 02:32N 35°36' E 139°47'0 0.0
2018-Jun-10 02:02N 35°36' E 139°47'0 0.0
2018-Jun-10 01:57N 35°36' E 139°47'0 0.7
2018-Jun-10 01:28N 35°36' E 139°47'3 7.3
2018-Jun-10 01:00N 35°34' E 139°50'611.0
2018-Jun-10 00:30N 35°28' E 139°51'612.7
2018-Jun-10 00:00N 35°23' E 139°46'611.1
2018-Jun-09 23:31N 35°18' E 139°45'612.0
2018-Jun-09 23:00N 35°12' E 139°47'713.4
2018-Jun-09 22:30N 35°05' E 139°44'713.5
2018-Jun-09 22:00N 35°01' E 139°38'23910.2
2018-Jun-08 22:38N 33°46' E 135°03'215.3
2018-Jun-08 22:30N 33°47' E 135°02'714.4
2018-Jun-08 22:00N 33°54' E 134°58'714.7
2018-Jun-08 21:30N 34°01' E 134°57'714.8
2018-Jun-08 21:00N 34°08' E 134°57'714.5
2018-Jun-08 20:30N 34°16' E 134°58'612.9
2018-Jun-08 20:00N 34°22' E 135°00'611.5
2018-Jun-08 19:30N 34°25' E 135°06'510.1
2018-Jun-08 19:00N 34°29' E 135°10'3 6.6
2018-Jun-08 18:30N 34°31' E 135°13'0 0.1
2018-Jun-08 17:58N 34°31' E 135°13'0 0.1
2018-Jun-08 17:28N 34°31' E 135°13'0 0.0
2018-Jun-08 16:58N 34°31' E 135°13'0 0.1
2018-Jun-08 16:28N 34°31' E 135°13'0 0.0
2018-Jun-08 15:58N 34°31' E 135°13'0 0.0
2018-Jun-08 15:28N 34°31' E 135°13'0 0.0
2018-Jun-08 14:58N 34°31' E 135°13'0 0.0
2018-Jun-08 14:28N 34°31' E 135°13'0 0.0
2018-Jun-08 13:58N 34°31' E 135°13'0 0.0
2018-Jun-08 13:28N 34°31' E 135°13'0 0.0
2018-Jun-08 12:58N 34°31' E 135°13'0 0.1
2018-Jun-08 12:30N 34°31' E 135°13'4 7.4
2018-Jun-08 12:00N 34°34' E 135°15'510.2
2018-Jun-08 11:30N 34°40' E 135°15'1 1.0
2018-Jun-08 10:54N 34°40' E 135°14'0 0.0
2018-Jun-08 10:18N 34°40' E 135°14'0 0.0
2018-Jun-08 09:54N 34°40' E 135°14'0 0.0
2018-Jun-08 09:30N 34°40' E 135°14'0 0.0
2018-Jun-08 08:54N 34°40' E 135°14'0 0.0
2018-Jun-08 08:24N 34°40' E 135°14'0 0.0
2018-Jun-08 07:54N 34°40' E 135°14'0 0.4
2018-Jun-08 07:31N 34°40' E 135°15'3 4.5
2018-Jun-08 06:50N 34°38' E 135°18'0 0.1
2018-Jun-08 06:26N 34°38' E 135°18'0 0.0
2018-Jun-08 05:56N 34°38' E 135°18'0 0.0
2018-Jun-08 05:26N 34°38' E 135°18'0 0.0
2018-Jun-08 04:50N 34°38' E 135°18'0 0.1
2018-Jun-08 04:26N 34°38' E 135°18'0 0.1
2018-Jun-08 03:56N 34°38' E 135°18'2 5.4
2018-Jun-08 03:30N 34°39' E 135°21'  
Track history (hours):
 
Tides and Currents Weather Stations Pressure Air Temp Water Temp Dewpoint Dewpoint Depression Visibility Wind Speed Wind Dir Waves Ship Positions

Josco Star

Last reported at 2018-Jun-18 03:24 UTC. Time now 2018-Jun-18 21:14 UTC.
Position N 32°01' E 120°33'.

Length 143 m; draft 6.8 m.

Type: Cargo ship. MMSI: 477105800.

Date/timePositionNaut miles runAvg speedWind from/ knotsBaromVisibWave heightAir tempDewpointWater temp
2018-Jun-18 03:24N 32°01' E 120°33'613.7
2018-Jun-18 03:00N 32°02' E 120°27'2 0.0
2018-Jun-16 04:51N 32°01' E 120°24'2 5.8
2018-Jun-16 04:30N 32°02' E 120°27'5 9.0
2018-Jun-16 04:00N 32°01' E 120°32'83 9.8
2018-Jun-15 19:32N 31°16' E 121°54'112.6
2018-Jun-15 19:29N 31°16' E 121°54'612.5
2018-Jun-15 18:58N 31°15' E 122°02'912.1
2018-Jun-15 18:13N 31°11' E 122°11'413.6
2018-Jun-15 17:55N 31°08' E 122°15'612.5
2018-Jun-15 17:26N 31°07' E 122°22'  
2018-Jun-11 22:36N 35°02' E 139°38'214.4
2018-Jun-11 22:29N 35°04' E 139°40'713.7
2018-Jun-11 22:00N 35°08' E 139°45'713.5
2018-Jun-11 21:29N 35°15' E 139°46'612.7
2018-Jun-11 21:00N 35°20' E 139°42'510.9
2018-Jun-11 20:30N 35°26' E 139°44'1 1.6
2018-Jun-11 19:59N 35°26' E 139°43'0 0.0
2018-Jun-11 19:29N 35°26' E 139°43'0 0.0
2018-Jun-11 18:59N 35°26' E 139°43'0 0.0
2018-Jun-11 18:29N 35°26' E 139°43'0 0.0
2018-Jun-11 17:59N 35°26' E 139°43'0 0.1
2018-Jun-11 17:29N 35°26' E 139°43'0 0.0
2018-Jun-11 16:59N 35°26' E 139°43'0 0.0
2018-Jun-11 16:29N 35°26' E 139°43'0 0.0
2018-Jun-11 15:59N 35°26' E 139°43'0 0.0
2018-Jun-11 15:29N 35°26' E 139°43'0 0.0
2018-Jun-11 14:59N 35°26' E 139°43'0 0.0
2018-Jun-11 14:29N 35°26' E 139°43'0 0.0
2018-Jun-11 13:59N 35°26' E 139°43'0 0.1
2018-Jun-11 13:29N 35°26' E 139°43'0 0.0
2018-Jun-11 12:59N 35°26' E 139°43'0 0.0
2018-Jun-11 12:29N 35°26' E 139°43'0 0.0
2018-Jun-11 11:59N 35°26' E 139°43'0 0.0
2018-Jun-11 11:29N 35°26' E 139°43'0 0.0
2018-Jun-11 10:59N 35°26' E 139°43'0 0.0
2018-Jun-11 10:29N 35°26' E 139°43'0 0.0
2018-Jun-11 09:59N 35°26' E 139°43'0 0.0
2018-Jun-11 09:29N 35°26' E 139°43'0 0.0
2018-Jun-11 08:59N 35°26' E 139°43'0 0.0
2018-Jun-11 08:29N 35°26' E 139°43'0 0.1
2018-Jun-11 08:00N 35°26' E 139°43'1 2.9
2018-Jun-11 07:31N 35°27' E 139°41'0 0.8
2018-Jun-11 07:00N 35°27' E 139°41'0 0.0
2018-Jun-11 06:30N 35°27' E 139°41'0 0.0
2018-Jun-11 06:00N 35°27' E 139°41'0 0.0
2018-Jun-11 05:31N 35°27' E 139°41'0 0.0
2018-Jun-11 05:01N 35°27' E 139°41'0 0.0
2018-Jun-11 04:30N 35°27' E 139°41'0 0.0
2018-Jun-11 04:01N 35°27' E 139°41'0 0.0
2018-Jun-11 03:31N 35°27' E 139°41'0 0.0
2018-Jun-11 03:00N 35°27' E 139°41'0 0.0
2018-Jun-11 02:30N 35°27' E 139°41'1 2.8
2018-Jun-11 02:01N 35°26' E 139°42'510.0
2018-Jun-11 01:30N 35°29' E 139°48'2 2.0
2018-Jun-11 00:32N 35°29' E 139°45'0 0.0
2018-Jun-11 00:26N 35°29' E 139°45'0 0.0
2018-Jun-10 23:56N 35°29' E 139°45'0 0.0
2018-Jun-10 23:30N 35°29' E 139°45'0 0.3
2018-Jun-10 23:00N 35°29' E 139°45'2 4.7
2018-Jun-10 22:30N 35°27' E 139°44'1 1.9
2018-Jun-10 21:59N 35°26' E 139°43'0 0.0
2018-Jun-10 21:29N 35°26' E 139°43'0 0.0
2018-Jun-10 20:59N 35°26' E 139°43'0 0.0
2018-Jun-10 20:29N 35°26' E 139°43'0 0.0
2018-Jun-10 19:59N 35°26' E 139°43'0 0.0
2018-Jun-10 19:29N 35°26' E 139°43'0 0.0
2018-Jun-10 18:59N 35°26' E 139°43'0 0.0
2018-Jun-10 18:29N 35°26' E 139°43'0 0.1
2018-Jun-10 17:59N 35°26' E 139°43'0 0.1
2018-Jun-10 17:29N 35°26' E 139°43'0 0.0
2018-Jun-10 16:59N 35°26' E 139°43'0 0.0
2018-Jun-10 16:29N 35°26' E 139°43'0 0.0
2018-Jun-10 15:56N 35°26' E 139°43'0 0.1
2018-Jun-10 15:29N 35°26' E 139°43'0 0.2
2018-Jun-10 15:00N 35°26' E 139°43'0 0.5
2018-Jun-10 14:30N 35°26' E 139°43'7 7.0
2018-Jun-10 13:31N 35°30' E 139°51'510.8
2018-Jun-10 13:00N 35°34' E 139°48'2 4.1
2018-Jun-10 12:30N 35°36' E 139°47'0 0.0
2018-Jun-10 11:23N 35°36' E 139°47'0 0.0
2018-Jun-10 10:59N 35°36' E 139°47'0 0.0
2018-Jun-10 08:50N 35°36' E 139°47'0 0.0
2018-Jun-10 06:41N 35°36' E 139°47'0 0.0
2018-Jun-10 06:11N 35°36' E 139°47'0 0.0
2018-Jun-10 05:59N 35°36' E 139°47'0 0.0
2018-Jun-10 05:29N 35°36' E 139°47'0 0.0
2018-Jun-10 04:53N 35°36' E 139°47'0 0.0
2018-Jun-10 03:14N 35°36' E 139°47'0 0.0
2018-Jun-10 02:32N 35°36' E 139°47'0 0.0
2018-Jun-10 02:02N 35°36' E 139°47'0 0.0
2018-Jun-10 01:57N 35°36' E 139°47'0 0.7
2018-Jun-10 01:28N 35°36' E 139°47'3 7.3
2018-Jun-10 01:00N 35°34' E 139°50'611.0
2018-Jun-10 00:30N 35°28' E 139°51'612.7
2018-Jun-10 00:00N 35°23' E 139°46'611.1
2018-Jun-09 23:31N 35°18' E 139°45'612.0
2018-Jun-09 23:00N 35°12' E 139°47'713.4
2018-Jun-09 22:30N 35°05' E 139°44'713.5
2018-Jun-09 22:00N 35°01' E 139°38'23910.2
2018-Jun-08 22:38N 33°46' E 135°03'215.3
2018-Jun-08 22:30N 33°47' E 135°02'714.4
2018-Jun-08 22:00N 33°54' E 134°58'714.7
2018-Jun-08 21:30N 34°01' E 134°57'714.8
2018-Jun-08 21:00N 34°08' E 134°57'714.5
2018-Jun-08 20:30N 34°16' E 134°58'612.9
2018-Jun-08 20:00N 34°22' E 135°00'611.5
2018-Jun-08 19:30N 34°25' E 135°06'510.1
2018-Jun-08 19:00N 34°29' E 135°10'3 6.6
2018-Jun-08 18:30N 34°31' E 135°13'0 0.1
2018-Jun-08 17:58N 34°31' E 135°13'0 0.1
2018-Jun-08 17:28N 34°31' E 135°13'0 0.0
2018-Jun-08 16:58N 34°31' E 135°13'0 0.1
2018-Jun-08 16:28N 34°31' E 135°13'0 0.0
2018-Jun-08 15:58N 34°31' E 135°13'0 0.0
2018-Jun-08 15:28N 34°31' E 135°13'0 0.0
2018-Jun-08 14:58N 34°31' E 135°13'0 0.0
2018-Jun-08 14:28N 34°31' E 135°13'0 0.0
2018-Jun-08 13:58N 34°31' E 135°13'0 0.0
2018-Jun-08 13:28N 34°31' E 135°13'0 0.0
2018-Jun-08 12:58N 34°31' E 135°13'0 0.1
2018-Jun-08 12:30N 34°31' E 135°13'4 7.4
2018-Jun-08 12:00N 34°34' E 135°15'510.2
2018-Jun-08 11:30N 34°40' E 135°15'1 1.0
2018-Jun-08 10:54N 34°40' E 135°14'0 0.0
2018-Jun-08 10:18N 34°40' E 135°14'0 0.0
2018-Jun-08 09:54N 34°40' E 135°14'0 0.0
2018-Jun-08 09:30N 34°40' E 135°14'0 0.0
2018-Jun-08 08:54N 34°40' E 135°14'0 0.0
2018-Jun-08 08:24N 34°40' E 135°14'0 0.0
2018-Jun-08 07:54N 34°40' E 135°14'0 0.4
2018-Jun-08 07:31N 34°40' E 135°15'3 4.5
2018-Jun-08 06:50N 34°38' E 135°18'0 0.1
2018-Jun-08 06:26N 34°38' E 135°18'0 0.0
2018-Jun-08 05:56N 34°38' E 135°18'0 0.0
2018-Jun-08 05:26N 34°38' E 135°18'0 0.0
2018-Jun-08 04:50N 34°38' E 135°18'0 0.1
2018-Jun-08 04:26N 34°38' E 135°18'0 0.1
2018-Jun-08 03:56N 34°38' E 135°18'2 5.4
2018-Jun-08 03:30N 34°39' E 135°21'  

Dump ship's entire track history